sensor_id;sensor_type;location;lat;lon;timestamp;temperature;humidity
14252;DHT22;7210;51.502;10.722;2023-04-15T00:00:22;5.80;99.90
14252;DHT22;7210;51.502;10.722;2023-04-15T00:02:50;5.80;99.90
14252;DHT22;7210;51.502;10.722;2023-04-15T00:05:17;5.80;99.90
14252;DHT22;7210;51.502;10.722;2023-04-15T00:07:44;5.70;99.90
14252;DHT22;7210;51.502;10.722;2023-04-15T00:10:17;5.70;99.90
14252;DHT22;7210;51.502;10.722;2023-04-15T00:12:44;5.60;99.90
14252;DHT22;7210;51.502;10.722;2023-04-15T00:15:11;5.60;99.90
14252;DHT22;7210;51.502;10.722;2023-04-15T00:17:40;5.60;99.90
14252;DHT22;7210;51.502;10.722;2023-04-15T00:20:08;5.60;99.90
14252;DHT22;7210;51.502;10.722;2023-04-15T00:22:35;5.60;99.90
14252;DHT22;7210;51.502;10.722;2023-04-15T00:25:03;5.60;99.90
14252;DHT22;7210;51.502;10.722;2023-04-15T00:27:31;5.60;99.90
14252;DHT22;7210;51.502;10.722;2023-04-15T00:29:58;5.60;99.90
14252;DHT22;7210;51.502;10.722;2023-04-15T00:32:25;5.60;99.90
14252;DHT22;7210;51.502;10.722;2023-04-15T00:34:53;5.60;99.90
14252;DHT22;7210;51.502;10.722;2023-04-15T00:37:21;5.60;99.90
14252;DHT22;7210;51.502;10.722;2023-04-15T00:39:48;5.60;99.90
14252;DHT22;7210;51.502;10.722;2023-04-15T00:42:16;5.60;99.90
14252;DHT22;7210;51.502;10.722;2023-04-15T00:44:44;5.60;99.90
14252;DHT22;7210;51.502;10.722;2023-04-15T00:47:11;5.60;99.90
14252;DHT22;7210;51.502;10.722;2023-04-15T00:49:39;5.70;99.90
14252;DHT22;7210;51.502;10.722;2023-04-15T00:52:08;5.80;99.90
14252;DHT22;7210;51.502;10.722;2023-04-15T00:54:35;5.80;99.90
14252;DHT22;7210;51.502;10.722;2023-04-15T00:57:04;5.90;99.90
14252;DHT22;7210;51.502;10.722;2023-04-15T00:59:33;5.80;99.90
14252;DHT22;7210;51.502;10.722;2023-04-15T01:02:00;5.90;99.90
14252;DHT22;7210;51.502;10.722;2023-04-15T01:04:28;5.80;99.90
14252;DHT22;7210;51.502;10.722;2023-04-15T01:06:57;5.80;99.90
14252;DHT22;7210;51.502;10.722;2023-04-15T01:09:26;5.80;99.90
14252;DHT22;7210;51.502;10.722;2023-04-15T01:11:53;5.80;99.90
14252;DHT22;7210;51.502;10.722;2023-04-15T01:14:20;5.80;99.90
14252;DHT22;7210;51.502;10.722;2023-04-15T01:16:47;5.80;99.90
14252;DHT22;7210;51.502;10.722;2023-04-15T01:19:16;5.90;99.90
14252;DHT22;7210;51.502;10.722;2023-04-15T01:21:44;5.90;99.90
14252;DHT22;7210;51.502;10.722;2023-04-15T01:24:12;5.90;99.90
14252;DHT22;7210;51.502;10.722;2023-04-15T01:26:45;5.90;99.90
14252;DHT22;7210;51.502;10.722;2023-04-15T01:29:13;5.90;99.90
14252;DHT22;7210;51.502;10.722;2023-04-15T01:31:40;5.90;99.90
14252;DHT22;7210;51.502;10.722;2023-04-15T01:34:15;5.80;99.90
14252;DHT22;7210;51.502;10.722;2023-04-15T01:36:42;5.80;99.90
14252;DHT22;7210;51.502;10.722;2023-04-15T01:39:09;5.80;99.90
14252;DHT22;7210;51.502;10.722;2023-04-15T01:41:36;5.80;99.90
14252;DHT22;7210;51.502;10.722;2023-04-15T01:44:05;5.90;99.90
14252;DHT22;7210;51.502;10.722;2023-04-15T01:46:32;5.80;99.90
14252;DHT22;7210;51.502;10.722;2023-04-15T01:49:00;5.80;99.90
14252;DHT22;7210;51.502;10.722;2023-04-15T01:51:27;5.80;99.90
14252;DHT22;7210;51.502;10.722;2023-04-15T01:53:54;5.90;99.90
14252;DHT22;7210;51.502;10.722;2023-04-15T01:56:23;5.90;99.90
14252;DHT22;7210;51.502;10.722;2023-04-15T01:58:52;5.90;99.90
14252;DHT22;7210;51.502;10.722;2023-04-15T02:01:21;5.80;99.90
14252;DHT22;7210;51.502;10.722;2023-04-15T02:03:48;5.80;99.90
14252;DHT22;7210;51.502;10.722;2023-04-15T02:09:05;5.80;99.90
14252;DHT22;7210;51.502;10.722;2023-04-15T02:11:33;5.80;99.90
14252;DHT22;7210;51.502;10.722;2023-04-15T02:14:03;5.90;99.90
14252;DHT22;7210;51.502;10.722;2023-04-15T02:19:34;5.90;99.90
14252;DHT22;7210;51.502;10.722;2023-04-15T02:22:02;5.90;99.90
14252;DHT22;7210;51.502;10.722;2023-04-15T02:24:29;5.90;99.90
14252;DHT22;7210;51.502;10.722;2023-04-15T02:26:57;5.90;99.90
14252;DHT22;7210;51.502;10.722;2023-04-15T02:29:24;5.90;99.90
14252;DHT22;7210;51.502;10.722;2023-04-15T02:31:51;5.90;99.90
14252;DHT22;7210;51.502;10.722;2023-04-15T02:34:19;6.00;99.90
14252;DHT22;7210;51.502;10.722;2023-04-15T02:36:48;6.00;99.90
14252;DHT22;7210;51.502;10.722;2023-04-15T02:39:20;6.00;99.90
14252;DHT22;7210;51.502;10.722;2023-04-15T02:41:47;6.00;99.90
14252;DHT22;7210;51.502;10.722;2023-04-15T02:44:17;6.00;99.90
14252;DHT22;7210;51.502;10.722;2023-04-15T02:46:46;5.90;99.90
14252;DHT22;7210;51.502;10.722;2023-04-15T02:49:17;6.00;99.90
14252;DHT22;7210;51.502;10.722;2023-04-15T02:51:44;6.00;99.90
14252;DHT22;7210;51.502;10.722;2023-04-15T02:54:15;6.00;99.90
14252;DHT22;7210;51.502;10.722;2023-04-15T02:56:43;6.00;99.90
14252;DHT22;7210;51.502;10.722;2023-04-15T02:59:11;6.00;99.90
14252;DHT22;7210;51.502;10.722;2023-04-15T03:01:38;6.00;99.90
14252;DHT22;7210;51.502;10.722;2023-04-15T03:04:05;6.00;99.90
14252;DHT22;7210;51.502;10.722;2023-04-15T03:06:33;6.00;99.90
14252;DHT22;7210;51.502;10.722;2023-04-15T03:09:01;6.10;99.90
14252;DHT22;7210;51.502;10.722;2023-04-15T03:11:34;6.00;99.90
14252;DHT22;7210;51.502;10.722;2023-04-15T03:14:05;6.10;99.90
14252;DHT22;7210;51.502;10.722;2023-04-15T03:16:35;6.10;99.90
14252;DHT22;7210;51.502;10.722;2023-04-15T03:19:02;6.20;99.90
14252;DHT22;7210;51.502;10.722;2023-04-15T03:21:30;6.10;99.90
14252;DHT22;7210;51.502;10.722;2023-04-15T03:23:57;6.10;99.90
14252;DHT22;7210;51.502;10.722;2023-04-15T03:26:26;6.10;99.90
14252;DHT22;7210;51.502;10.722;2023-04-15T03:28:58;6.10;99.90
14252;DHT22;7210;51.502;10.722;2023-04-15T03:31:26;6.10;99.90
14252;DHT22;7210;51.502;10.722;2023-04-15T03:33:53;6.00;99.90
14252;DHT22;7210;51.502;10.722;2023-04-15T03:36:20;6.10;99.90
14252;DHT22;7210;51.502;10.722;2023-04-15T03:38:47;6.20;99.90
14252;DHT22;7210;51.502;10.722;2023-04-15T03:41:14;6.20;99.90
14252;DHT22;7210;51.502;10.722;2023-04-15T03:43:42;6.10;99.90
14252;DHT22;7210;51.502;10.722;2023-04-15T03:46:10;6.10;99.90
14252;DHT22;7210;51.502;10.722;2023-04-15T03:48:37;6.10;99.90
14252;DHT22;7210;51.502;10.722;2023-04-15T03:51:05;6.10;99.90
14252;DHT22;7210;51.502;10.722;2023-04-15T03:53:32;6.10;99.90
14252;DHT22;7210;51.502;10.722;2023-04-15T03:55:59;6.10;99.90
14252;DHT22;7210;51.502;10.722;2023-04-15T03:58:26;6.00;99.90
14252;DHT22;7210;51.502;10.722;2023-04-15T04:00:53;6.00;99.90
14252;DHT22;7210;51.502;10.722;2023-04-15T04:03:22;6.00;99.90
14252;DHT22;7210;51.502;10.722;2023-04-15T04:05:50;6.00;99.90
14252;DHT22;7210;51.502;10.722;2023-04-15T04:08:17;6.00;99.90
14252;DHT22;7210;51.502;10.722;2023-04-15T04:10:46;6.00;99.90
14252;DHT22;7210;51.502;10.722;2023-04-15T04:13:13;6.00;99.90
14252;DHT22;7210;51.502;10.722;2023-04-15T04:15:40;5.90;99.90
14252;DHT22;7210;51.502;10.722;2023-04-15T04:18:07;6.00;99.90
14252;DHT22;7210;51.502;10.722;2023-04-15T04:20:36;6.00;99.90
14252;DHT22;7210;51.502;10.722;2023-04-15T04:23:03;5.90;99.90
14252;DHT22;7210;51.502;10.722;2023-04-15T04:25:30;5.90;99.90
14252;DHT22;7210;51.502;10.722;2023-04-15T04:27:57;5.90;99.90
14252;DHT22;7210;51.502;10.722;2023-04-15T04:30:24;5.90;99.90
14252;DHT22;7210;51.502;10.722;2023-04-15T04:32:52;5.90;99.90
14252;DHT22;7210;51.502;10.722;2023-04-15T04:35:19;5.90;99.90
14252;DHT22;7210;51.502;10.722;2023-04-15T04:37:47;5.90;99.90
14252;DHT22;7210;51.502;10.722;2023-04-15T04:40:15;5.80;99.90
14252;DHT22;7210;51.502;10.722;2023-04-15T04:42:42;5.80;99.90
14252;DHT22;7210;51.502;10.722;2023-04-15T04:45:10;5.80;99.90
14252;DHT22;7210;51.502;10.722;2023-04-15T04:47:37;5.90;99.90
14252;DHT22;7210;51.502;10.722;2023-04-15T04:50:06;5.80;99.90
14252;DHT22;7210;51.502;10.722;2023-04-15T04:52:34;5.90;99.90
14252;DHT22;7210;51.502;10.722;2023-04-15T04:55:04;5.80;99.90
14252;DHT22;7210;51.502;10.722;2023-04-15T04:57:33;5.80;99.90
14252;DHT22;7210;51.502;10.722;2023-04-15T05:00:02;5.80;99.90
14252;DHT22;7210;51.502;10.722;2023-04-15T05:02:30;5.80;99.90
14252;DHT22;7210;51.502;10.722;2023-04-15T05:04:57;5.80;99.90
14252;DHT22;7210;51.502;10.722;2023-04-15T05:07:24;5.80;99.90
14252;DHT22;7210;51.502;10.722;2023-04-15T05:09:52;5.80;99.90
14252;DHT22;7210;51.502;10.722;2023-04-15T05:12:20;5.80;99.90
14252;DHT22;7210;51.502;10.722;2023-04-15T05:14:48;5.90;99.90
14252;DHT22;7210;51.502;10.722;2023-04-15T05:17:16;5.90;99.90
14252;DHT22;7210;51.502;10.722;2023-04-15T05:19:44;5.90;99.90
14252;DHT22;7210;51.502;10.722;2023-04-15T05:22:11;5.90;99.90
14252;DHT22;7210;51.502;10.722;2023-04-15T05:24:38;5.90;99.90
14252;DHT22;7210;51.502;10.722;2023-04-15T05:27:05;5.90;99.90
14252;DHT22;7210;51.502;10.722;2023-04-15T05:29:36;5.90;99.90
14252;DHT22;7210;51.502;10.722;2023-04-15T05:32:04;5.90;99.90
14252;DHT22;7210;51.502;10.722;2023-04-15T05:34:31;5.80;99.90
14252;DHT22;7210;51.502;10.722;2023-04-15T05:36:59;5.90;99.90
14252;DHT22;7210;51.502;10.722;2023-04-15T05:39:26;5.90;99.90
14252;DHT22;7210;51.502;10.722;2023-04-15T05:41:53;5.90;99.90
14252;DHT22;7210;51.502;10.722;2023-04-15T05:44:22;5.90;99.90
14252;DHT22;7210;51.502;10.722;2023-04-15T05:46:50;5.90;99.90
14252;DHT22;7210;51.502;10.722;2023-04-15T05:49:17;5.90;99.90
14252;DHT22;7210;51.502;10.722;2023-04-15T05:51:46;5.90;99.90
14252;DHT22;7210;51.502;10.722;2023-04-15T05:54:13;6.00;99.90
14252;DHT22;7210;51.502;10.722;2023-04-15T05:56:41;6.00;99.90
14252;DHT22;7210;51.502;10.722;2023-04-15T05:59:08;6.00;99.90
14252;DHT22;7210;51.502;10.722;2023-04-15T06:01:36;6.00;99.90
14252;DHT22;7210;51.502;10.722;2023-04-15T06:04:05;6.00;99.90
14252;DHT22;7210;51.502;10.722;2023-04-15T06:06:32;6.10;99.90
14252;DHT22;7210;51.502;10.722;2023-04-15T06:08:59;6.10;99.90
14252;DHT22;7210;51.502;10.722;2023-04-15T06:11:26;6.00;99.90
14252;DHT22;7210;51.502;10.722;2023-04-15T06:13:53;6.10;99.90
14252;DHT22;7210;51.502;10.722;2023-04-15T06:16:21;6.20;99.90
14252;DHT22;7210;51.502;10.722;2023-04-15T06:18:48;6.20;99.90
14252;DHT22;7210;51.502;10.722;2023-04-15T06:21:17;6.20;99.90
14252;DHT22;7210;51.502;10.722;2023-04-15T06:23:44;6.20;99.90
14252;DHT22;7210;51.502;10.722;2023-04-15T06:26:12;6.20;99.90
14252;DHT22;7210;51.502;10.722;2023-04-15T06:28:39;6.20;99.90
14252;DHT22;7210;51.502;10.722;2023-04-15T06:31:06;6.20;99.90
14252;DHT22;7210;51.502;10.722;2023-04-15T06:33:33;6.30;99.90
14252;DHT22;7210;51.502;10.722;2023-04-15T06:36:01;6.30;99.90
14252;DHT22;7210;51.502;10.722;2023-04-15T06:38:29;6.30;99.90
14252;DHT22;7210;51.502;10.722;2023-04-15T06:41:02;6.30;99.90
14252;DHT22;7210;51.502;10.722;2023-04-15T06:43:29;6.30;99.90
14252;DHT22;7210;51.502;10.722;2023-04-15T06:45:57;6.30;99.90
14252;DHT22;7210;51.502;10.722;2023-04-15T06:48:24;6.30;99.90
14252;DHT22;7210;51.502;10.722;2023-04-15T06:50:52;6.30;99.90
14252;DHT22;7210;51.502;10.722;2023-04-15T06:53:19;6.30;99.90
14252;DHT22;7210;51.502;10.722;2023-04-15T06:55:48;6.30;99.90
14252;DHT22;7210;51.502;10.722;2023-04-15T06:58:15;6.30;99.90
14252;DHT22;7210;51.502;10.722;2023-04-15T07:00:42;6.30;99.90
14252;DHT22;7210;51.502;10.722;2023-04-15T07:03:10;6.30;99.90
14252;DHT22;7210;51.502;10.722;2023-04-15T07:05:38;6.30;99.90
14252;DHT22;7210;51.502;10.722;2023-04-15T07:08:06;6.30;99.90
14252;DHT22;7210;51.502;10.722;2023-04-15T07:10:33;6.20;99.90
14252;DHT22;7210;51.502;10.722;2023-04-15T07:13:02;6.30;99.90
14252;DHT22;7210;51.502;10.722;2023-04-15T07:15:30;6.30;99.90
14252;DHT22;7210;51.502;10.722;2023-04-15T07:17:57;6.30;99.90
14252;DHT22;7210;51.502;10.722;2023-04-15T07:20:24;6.30;99.90
14252;DHT22;7210;51.502;10.722;2023-04-15T07:22:51;6.30;99.90
14252;DHT22;7210;51.502;10.722;2023-04-15T07:25:19;6.30;99.90
14252;DHT22;7210;51.502;10.722;2023-04-15T07:27:46;6.40;99.90
14252;DHT22;7210;51.502;10.722;2023-04-15T07:30:15;6.40;99.90
14252;DHT22;7210;51.502;10.722;2023-04-15T07:32:42;6.40;99.90
14252;DHT22;7210;51.502;10.722;2023-04-15T07:35:09;6.50;99.90
14252;DHT22;7210;51.502;10.722;2023-04-15T07:37:36;6.50;99.90
14252;DHT22;7210;51.502;10.722;2023-04-15T07:40:05;6.50;99.90
14252;DHT22;7210;51.502;10.722;2023-04-15T07:42:33;6.50;99.90
14252;DHT22;7210;51.502;10.722;2023-04-15T07:45:01;6.40;99.90
14252;DHT22;7210;51.502;10.722;2023-04-15T07:47:30;6.50;99.90
14252;DHT22;7210;51.502;10.722;2023-04-15T07:49:57;6.50;99.90
14252;DHT22;7210;51.502;10.722;2023-04-15T07:52:24;6.50;99.90
14252;DHT22;7210;51.502;10.722;2023-04-15T07:54:52;6.60;99.90
14252;DHT22;7210;51.502;10.722;2023-04-15T07:57:19;6.60;99.90
14252;DHT22;7210;51.502;10.722;2023-04-15T07:59:46;6.60;99.90
14252;DHT22;7210;51.502;10.722;2023-04-15T08:02:13;6.60;99.90
14252;DHT22;7210;51.502;10.722;2023-04-15T08:04:42;6.60;99.90
14252;DHT22;7210;51.502;10.722;2023-04-15T08:07:09;6.70;99.90
14252;DHT22;7210;51.502;10.722;2023-04-15T08:09:36;6.70;99.90
14252;DHT22;7210;51.502;10.722;2023-04-15T08:12:04;6.70;99.90
14252;DHT22;7210;51.502;10.722;2023-04-15T08:14:32;6.70;99.90
14252;DHT22;7210;51.502;10.722;2023-04-15T08:16:59;6.80;99.90
14252;DHT22;7210;51.502;10.722;2023-04-15T08:19:26;6.90;99.90
14252;DHT22;7210;51.502;10.722;2023-04-15T08:21:55;6.90;99.90
14252;DHT22;7210;51.502;10.722;2023-04-15T08:24:23;7.00;99.90
14252;DHT22;7210;51.502;10.722;2023-04-15T08:26:51;7.00;99.90
14252;DHT22;7210;51.502;10.722;2023-04-15T08:29:19;7.00;99.90
14252;DHT22;7210;51.502;10.722;2023-04-15T08:31:46;7.00;99.90
14252;DHT22;7210;51.502;10.722;2023-04-15T08:34:13;7.00;99.90
14252;DHT22;7210;51.502;10.722;2023-04-15T08:36:41;7.00;99.90
14252;DHT22;7210;51.502;10.722;2023-04-15T08:39:10;7.00;99.90
14252;DHT22;7210;51.502;10.722;2023-04-15T08:41:40;7.00;99.90
14252;DHT22;7210;51.502;10.722;2023-04-15T08:44:13;6.90;99.90
14252;DHT22;7210;51.502;10.722;2023-04-15T08:46:41;6.90;99.90
14252;DHT22;7210;51.502;10.722;2023-04-15T08:49:10;6.90;99.90
14252;DHT22;7210;51.502;10.722;2023-04-15T08:51:39;6.90;99.90
14252;DHT22;7210;51.502;10.722;2023-04-15T08:54:08;6.90;99.90
14252;DHT22;7210;51.502;10.722;2023-04-15T08:56:38;7.00;99.90
14252;DHT22;7210;51.502;10.722;2023-04-15T08:59:06;7.00;99.90
14252;DHT22;7210;51.502;10.722;2023-04-15T09:01:34;7.10;99.90
14252;DHT22;7210;51.502;10.722;2023-04-15T09:04:05;7.10;99.90
14252;DHT22;7210;51.502;10.722;2023-04-15T09:06:33;7.10;99.90
14252;DHT22;7210;51.502;10.722;2023-04-15T09:09:01;7.20;99.90
14252;DHT22;7210;51.502;10.722;2023-04-15T09:11:30;7.20;99.90
14252;DHT22;7210;51.502;10.722;2023-04-15T09:13:57;7.30;99.90
14252;DHT22;7210;51.502;10.722;2023-04-15T09:16:24;7.30;99.90
14252;DHT22;7210;51.502;10.722;2023-04-15T09:18:52;7.40;99.90
14252;DHT22;7210;51.502;10.722;2023-04-15T09:21:20;7.40;99.90
14252;DHT22;7210;51.502;10.722;2023-04-15T09:23:58;7.40;99.90
14252;DHT22;7210;51.502;10.722;2023-04-15T09:26:33;7.40;99.90
14252;DHT22;7210;51.502;10.722;2023-04-15T09:29:04;7.40;99.90
14252;DHT22;7210;51.502;10.722;2023-04-15T09:31:32;7.40;99.90
14252;DHT22;7210;51.502;10.722;2023-04-15T09:33:59;7.50;99.90
14252;DHT22;7210;51.502;10.722;2023-04-15T09:36:27;7.50;99.90
14252;DHT22;7210;51.502;10.722;2023-04-15T09:38:56;7.60;99.90
14252;DHT22;7210;51.502;10.722;2023-04-15T09:41:24;7.70;99.90
14252;DHT22;7210;51.502;10.722;2023-04-15T09:43:53;7.70;99.90
14252;DHT22;7210;51.502;10.722;2023-04-15T09:46:39;7.80;99.90
14252;DHT22;7210;51.502;10.722;2023-04-15T09:49:08;7.80;99.90
14252;DHT22;7210;51.502;10.722;2023-04-15T09:51:36;7.80;99.90
14252;DHT22;7210;51.502;10.722;2023-04-15T09:54:03;7.70;99.90
14252;DHT22;7210;51.502;10.722;2023-04-15T09:56:33;7.70;99.90
14252;DHT22;7210;51.502;10.722;2023-04-15T09:59:04;7.80;99.90
14252;DHT22;7210;51.502;10.722;2023-04-15T10:01:31;7.80;99.90
14252;DHT22;7210;51.502;10.722;2023-04-15T10:04:02;7.80;99.90
14252;DHT22;7210;51.502;10.722;2023-04-15T10:06:30;7.90;99.90
14252;DHT22;7210;51.502;10.722;2023-04-15T10:08:58;7.90;99.90
14252;DHT22;7210;51.502;10.722;2023-04-15T10:11:28;7.90;99.90
14252;DHT22;7210;51.502;10.722;2023-04-15T10:13:56;7.80;99.90
14252;DHT22;7210;51.502;10.722;2023-04-15T10:16:26;7.90;99.90
14252;DHT22;7210;51.502;10.722;2023-04-15T10:18:55;7.90;99.90
14252;DHT22;7210;51.502;10.722;2023-04-15T10:21:24;7.90;99.90
14252;DHT22;7210;51.502;10.722;2023-04-15T10:23:51;7.90;99.90
14252;DHT22;7210;51.502;10.722;2023-04-15T10:26:18;7.80;99.90
14252;DHT22;7210;51.502;10.722;2023-04-15T10:28:46;7.80;99.90
14252;DHT22;7210;51.502;10.722;2023-04-15T10:31:14;7.80;99.90
14252;DHT22;7210;51.502;10.722;2023-04-15T10:33:45;7.80;99.90
14252;DHT22;7210;51.502;10.722;2023-04-15T10:36:14;7.80;99.90
14252;DHT22;7210;51.502;10.722;2023-04-15T10:38:43;7.90;99.90
14252;DHT22;7210;51.502;10.722;2023-04-15T10:41:12;7.90;99.90
14252;DHT22;7210;51.502;10.722;2023-04-15T10:43:46;7.90;99.90
14252;DHT22;7210;51.502;10.722;2023-04-15T10:46:18;7.90;99.90
14252;DHT22;7210;51.502;10.722;2023-04-15T10:48:50;7.90;99.90
14252;DHT22;7210;51.502;10.722;2023-04-15T10:51:27;7.90;99.90
14252;DHT22;7210;51.502;10.722;2023-04-15T10:53:57;7.90;99.90
14252;DHT22;7210;51.502;10.722;2023-04-15T10:56:28;7.80;99.90
14252;DHT22;7210;51.502;10.722;2023-04-15T10:58:58;7.90;99.90
14252;DHT22;7210;51.502;10.722;2023-04-15T11:01:51;7.90;99.90
14252;DHT22;7210;51.502;10.722;2023-04-15T11:04:54;8.00;99.90
14252;DHT22;7210;51.502;10.722;2023-04-15T11:07:36;8.00;99.90
14252;DHT22;7210;51.502;10.722;2023-04-15T11:13:28;8.10;99.90
14252;DHT22;7210;51.502;10.722;2023-04-15T11:15:59;8.10;99.90
14252;DHT22;7210;51.502;10.722;2023-04-15T11:18:34;8.20;99.90
14252;DHT22;7210;51.502;10.722;2023-04-15T11:21:05;8.20;99.90
14252;DHT22;7210;51.502;10.722;2023-04-15T11:23:36;8.20;99.90
14252;DHT22;7210;51.502;10.722;2023-04-15T11:26:06;8.30;99.90
14252;DHT22;7210;51.502;10.722;2023-04-15T11:28:37;8.30;99.90
14252;DHT22;7210;51.502;10.722;2023-04-15T11:31:07;8.30;99.90
14252;DHT22;7210;51.502;10.722;2023-04-15T11:33:37;8.30;99.90
14252;DHT22;7210;51.502;10.722;2023-04-15T11:36:12;8.30;99.90
14252;DHT22;7210;51.502;10.722;2023-04-15T11:38:42;8.30;99.90
14252;DHT22;7210;51.502;10.722;2023-04-15T11:41:11;8.20;99.90
14252;DHT22;7210;51.502;10.722;2023-04-15T11:43:38;8.30;99.90
14252;DHT22;7210;51.502;10.722;2023-04-15T11:46:06;8.30;99.90
14252;DHT22;7210;51.502;10.722;2023-04-15T11:48:34;8.30;99.90
14252;DHT22;7210;51.502;10.722;2023-04-15T11:51:04;8.40;99.90
14252;DHT22;7210;51.502;10.722;2023-04-15T11:53:38;8.40;99.90
14252;DHT22;7210;51.502;10.722;2023-04-15T11:56:07;8.50;99.90
14252;DHT22;7210;51.502;10.722;2023-04-15T11:58:37;8.60;99.90
14252;DHT22;7210;51.502;10.722;2023-04-15T12:01:06;8.60;99.90
14252;DHT22;7210;51.502;10.722;2023-04-15T12:03:37;8.50;99.90
14252;DHT22;7210;51.502;10.722;2023-04-15T12:06:10;8.50;99.90
14252;DHT22;7210;51.502;10.722;2023-04-15T12:09:03;8.50;99.90
14252;DHT22;7210;51.502;10.722;2023-04-15T12:11:36;8.50;99.90
14252;DHT22;7210;51.502;10.722;2023-04-15T12:14:08;8.50;99.90
14252;DHT22;7210;51.502;10.722;2023-04-15T12:16:39;8.50;99.90
14252;DHT22;7210;51.502;10.722;2023-04-15T12:19:09;8.50;99.90
14252;DHT22;7210;51.502;10.722;2023-04-15T12:21:39;8.50;99.90
14252;DHT22;7210;51.502;10.722;2023-04-15T12:24:10;8.60;99.90
14252;DHT22;7210;51.502;10.722;2023-04-15T12:26:44;8.60;99.90
14252;DHT22;7210;51.502;10.722;2023-04-15T12:29:15;8.60;99.90
14252;DHT22;7210;51.502;10.722;2023-04-15T12:31:47;8.60;99.90
14252;DHT22;7210;51.502;10.722;2023-04-15T12:34:16;8.70;99.90
14252;DHT22;7210;51.502;10.722;2023-04-15T12:36:45;8.70;99.90
14252;DHT22;7210;51.502;10.722;2023-04-15T12:39:13;8.60;99.90
14252;DHT22;7210;51.502;10.722;2023-04-15T12:41:41;8.60;99.90
14252;DHT22;7210;51.502;10.722;2023-04-15T12:44:08;8.70;99.90
14252;DHT22;7210;51.502;10.722;2023-04-15T12:46:36;8.60;99.90
14252;DHT22;7210;51.502;10.722;2023-04-15T12:49:03;8.60;99.90
14252;DHT22;7210;51.502;10.722;2023-04-15T12:51:31;8.60;99.90
14252;DHT22;7210;51.502;10.722;2023-04-15T12:53:58;8.70;99.90
14252;DHT22;7210;51.502;10.722;2023-04-15T12:56:26;8.70;99.90
14252;DHT22;7210;51.502;10.722;2023-04-15T12:58:53;8.70;99.90
14252;DHT22;7210;51.502;10.722;2023-04-15T13:01:21;8.70;99.90
14252;DHT22;7210;51.502;10.722;2023-04-15T13:03:48;8.70;99.90
14252;DHT22;7210;51.502;10.722;2023-04-15T13:06:16;8.60;99.90
14252;DHT22;7210;51.502;10.722;2023-04-15T13:08:43;8.60;99.90
14252;DHT22;7210;51.502;10.722;2023-04-15T13:11:10;8.60;99.90
14252;DHT22;7210;51.502;10.722;2023-04-15T13:13:39;8.60;99.90
14252;DHT22;7210;51.502;10.722;2023-04-15T13:16:06;8.60;99.90
14252;DHT22;7210;51.502;10.722;2023-04-15T13:18:34;8.60;99.90
14252;DHT22;7210;51.502;10.722;2023-04-15T13:21:01;8.60;99.90
14252;DHT22;7210;51.502;10.722;2023-04-15T13:23:28;8.60;99.90
14252;DHT22;7210;51.502;10.722;2023-04-15T13:25:56;8.50;99.90
14252;DHT22;7210;51.502;10.722;2023-04-15T13:28:23;8.50;99.90
14252;DHT22;7210;51.502;10.722;2023-04-15T13:30:51;8.50;99.90
14252;DHT22;7210;51.502;10.722;2023-04-15T13:33:18;8.50;99.90
14252;DHT22;7210;51.502;10.722;2023-04-15T13:35:45;8.40;99.90
14252;DHT22;7210;51.502;10.722;2023-04-15T13:38:13;8.40;99.90
14252;DHT22;7210;51.502;10.722;2023-04-15T13:40:40;8.40;99.90
14252;DHT22;7210;51.502;10.722;2023-04-15T13:43:07;8.30;99.90
14252;DHT22;7210;51.502;10.722;2023-04-15T13:45:34;8.30;99.90
14252;DHT22;7210;51.502;10.722;2023-04-15T13:48:03;8.40;99.90
14252;DHT22;7210;51.502;10.722;2023-04-15T13:50:30;8.50;99.90
14252;DHT22;7210;51.502;10.722;2023-04-15T13:52:58;8.50;99.90
14252;DHT22;7210;51.502;10.722;2023-04-15T13:55:25;8.50;99.90
14252;DHT22;7210;51.502;10.722;2023-04-15T13:57:52;8.40;99.90
14252;DHT22;7210;51.502;10.722;2023-04-15T14:00:20;8.40;99.90
14252;DHT22;7210;51.502;10.722;2023-04-15T14:02:47;8.40;99.90
14252;DHT22;7210;51.502;10.722;2023-04-15T14:05:15;8.40;99.90
14252;DHT22;7210;51.502;10.722;2023-04-15T14:07:43;8.50;99.90
14252;DHT22;7210;51.502;10.722;2023-04-15T14:10:10;8.50;99.90
14252;DHT22;7210;51.502;10.722;2023-04-15T14:12:37;8.50;99.90
14252;DHT22;7210;51.502;10.722;2023-04-15T14:15:05;8.50;99.90
14252;DHT22;7210;51.502;10.722;2023-04-15T14:17:33;8.50;99.90
14252;DHT22;7210;51.502;10.722;2023-04-15T14:20:00;8.50;99.90
14252;DHT22;7210;51.502;10.722;2023-04-15T14:22:29;8.60;99.90
14252;DHT22;7210;51.502;10.722;2023-04-15T14:24:56;8.60;99.90
14252;DHT22;7210;51.502;10.722;2023-04-15T14:27:23;8.60;99.90
14252;DHT22;7210;51.502;10.722;2023-04-15T14:29:50;8.60;99.90
14252;DHT22;7210;51.502;10.722;2023-04-15T14:32:18;8.60;99.90
14252;DHT22;7210;51.502;10.722;2023-04-15T14:34:46;8.60;99.90
14252;DHT22;7210;51.502;10.722;2023-04-15T14:37:13;8.60;99.90
14252;DHT22;7210;51.502;10.722;2023-04-15T14:39:41;8.60;99.90
14252;DHT22;7210;51.502;10.722;2023-04-15T14:42:08;8.60;99.90
14252;DHT22;7210;51.502;10.722;2023-04-15T14:44:35;8.50;99.90
14252;DHT22;7210;51.502;10.722;2023-04-15T14:47:02;8.60;99.90
14252;DHT22;7210;51.502;10.722;2023-04-15T14:49:30;8.60;99.90
14252;DHT22;7210;51.502;10.722;2023-04-15T14:51:57;8.60;99.90
14252;DHT22;7210;51.502;10.722;2023-04-15T14:54:24;8.60;99.90
14252;DHT22;7210;51.502;10.722;2023-04-15T14:56:53;8.60;99.90
14252;DHT22;7210;51.502;10.722;2023-04-15T14:59:20;8.60;92.80
14252;DHT22;7210;51.502;10.722;2023-04-15T15:01:48;8.60;82.80
14252;DHT22;7210;51.502;10.722;2023-04-15T15:04:15;8.60;80.30
14252;DHT22;7210;51.502;10.722;2023-04-15T15:06:42;8.70;78.40
14252;DHT22;7210;51.502;10.722;2023-04-15T15:09:10;8.60;79.30
14252;DHT22;7210;51.502;10.722;2023-04-15T15:11:37;8.60;80.60
14252;DHT22;7210;51.502;10.722;2023-04-15T15:14:06;8.60;73.50
14252;DHT22;7210;51.502;10.722;2023-04-15T15:16:33;8.60;76.80
14252;DHT22;7210;51.502;10.722;2023-04-15T15:19:00;8.60;71.00
14252;DHT22;7210;51.502;10.722;2023-04-15T15:21:27;8.60;65.10
14252;DHT22;7210;51.502;10.722;2023-04-15T15:23:54;8.70;59.30
14252;DHT22;7210;51.502;10.722;2023-04-15T15:26:22;8.70;54.80
14252;DHT22;7210;51.502;10.722;2023-04-15T15:28:49;8.70;60.40
14252;DHT22;7210;51.502;10.722;2023-04-15T15:31:17;8.70;62.60
14252;DHT22;7210;51.502;10.722;2023-04-15T15:33:44;8.60;60.10
14252;DHT22;7210;51.502;10.722;2023-04-15T15:36:12;8.60;55.40
14252;DHT22;7210;51.502;10.722;2023-04-15T15:38:39;8.60;51.90
14252;DHT22;7210;51.502;10.722;2023-04-15T15:41:06;8.60;49.40
14252;DHT22;7210;51.502;10.722;2023-04-15T15:43:34;8.60;51.60
14252;DHT22;7210;51.502;10.722;2023-04-15T15:46:02;8.60;47.70
14252;DHT22;7210;51.502;10.722;2023-04-15T15:48:31;8.60;45.00
14252;DHT22;7210;51.502;10.722;2023-04-15T15:50:58;8.50;41.00
14252;DHT22;7210;51.502;10.722;2023-04-15T15:53:25;8.50;39.20
14252;DHT22;7210;51.502;10.722;2023-04-15T15:55:52;8.60;32.20
14252;DHT22;7210;51.502;10.722;2023-04-15T15:58:19;8.60;32.90
14252;DHT22;7210;51.502;10.722;2023-04-15T16:00:47;8.60;32.00